Time,TemperatureF,DewpointF,PressureIn,WindDirection,WindDirectionDegrees,WindSpeedMPH,WindSpeedGustMPH,Humidity,HourlyPrecipIn,Conditions,Clouds,dailyrainin,SoftwareType,DateUTC
2013-02-04 00:05:00,29.0,17.4,29.98,SW,231,3.0,20.0,62,0.00,,,0.00,Weather View 32 v70,2013-02-04 05:05:00,
2013-02-04 00:10:00,29.0,17.6,29.98,SW,233,6.0,20.0,62,0.00,,,0.00,Weather View 32 v70,2013-02-04 05:10:00,
2013-02-04 00:15:00,29.0,17.6,29.99,SSW,201,4.0,20.0,62,0.00,,,0.00,Weather View 32 v70,2013-02-04 05:15:00,
2013-02-04 00:20:00,28.9,17.3,29.99,SW,232,2.0,20.0,62,0.00,,,0.00,Weather View 32 v70,2013-02-04 05:20:00,
2013-02-04 00:25:00,28.9,17.1,29.99,West,280,3.0,16.0,61,0.00,,,0.00,Weather View 32 v70,2013-02-04 05:25:00,
2013-02-04 00:30:00,29.0,17.3,29.98,West,274,2.0,16.0,61,0.00,,,0.00,Weather View 32 v70,2013-02-04 05:30:00,
2013-02-04 00:35:00,28.9,17.2,29.99,SW,231,2.0,16.0,61,0.00,,,0.00,Weather View 32 v70,2013-02-04 05:35:00,
2013-02-04 00:40:00,28.9,17.1,29.99,SW,219,1.0,11.0,61,0.00,,,0.00,Weather View 32 v70,2013-02-04 05:40:00,
2013-02-04 00:50:00,29.0,17.1,29.99,WNW,287,0.0,11.0,61,0.00,,,0.00,Weather View 32 v70,2013-02-04 05:50:00,
2013-02-04 00:55:00,29.1,17.2,29.99,West,270,0.0,11.0,61,0.00,,,0.00,Weather View 32 v70,2013-02-04 05:55:00,
2013-02-04 01:00:00,29.2,17.4,29.99,SSE,167,0.0,11.0,61,0.00,,,0.00,Weather View 32 v70,2013-02-04 06:00:00,
2013-02-04 01:10:00,29.0,17.3,29.99,NW,312,3.0,10.0,61,0.00,,,0.00,Weather View 32 v70,2013-02-04 06:10:00,
2013-02-04 01:20:00,29.0,17.0,29.99,WNW,293,2.0,10.0,61,0.00,,,0.00,Weather View 32 v70,2013-02-04 06:20:00,
2013-02-04 01:25:00,29.0,17.0,29.99,West,281,2.0,10.0,61,0.00,,,0.00,Weather View 32 v70,2013-02-04 06:25:00,
2013-02-04 01:35:00,28.7,16.7,29.99,NW,307,3.0,7.0,60,0.00,,,0.00,Weather View 32 v70,2013-02-04 06:35:00,
2013-02-04 01:40:00,28.7,17.0,29.99,NW,323,2.0,7.0,61,0.00,,,0.00,Weather View 32 v70,2013-02-04 06:40:00,
2013-02-04 01:45:00,28.6,16.7,29.99,NW,307,4.0,7.0,61,0.00,,,0.00,Weather View 32 v70,2013-02-04 06:45:00,
2013-02-04 01:50:00,28.7,17.0,29.99,NW,316,4.0,7.0,61,0.00,,,0.00,Weather View 32 v70,2013-02-04 06:50:00,
2013-02-04 01:55:00,28.7,16.9,29.99,West,277,4.0,8.0,61,0.00,,,0.00,Weather View 32 v70,2013-02-04 06:55:00,
2013-02-04 02:00:00,28.4,16.0,30.00,NW,307,1.0,9.0,59,0.00,,,0.00,Weather View 32 v70,2013-02-04 07:00:00,
2013-02-04 02:10:00,28.2,16.1,30.00,WSW,250,4.0,10.0,60,0.00,,,0.00,Weather View 32 v70,2013-02-04 07:10:00,
2013-02-04 02:20:00,28.0,16.0,30.00,West,267,1.0,10.0,60,0.00,,,0.00,Weather View 32 v70,2013-02-04 07:20:00,
2013-02-04 02:25:00,28.0,16.1,30.00,West,267,0.0,10.0,61,0.00,,,0.00,Weather View 32 v70,2013-02-04 07:25:00,
2013-02-04 02:30:00,27.9,16.0,30.00,West,267,0.0,10.0,61,0.00,,,0.00,Weather View 32 v70,2013-02-04 07:30:00,
2013-02-04 02:40:00,27.7,16.1,30.00,West,266,5.0,10.0,61,0.00,,,0.00,Weather View 32 v70,2013-02-04 07:40:00,
2013-02-04 02:45:00,27.4,15.6,30.00,West,269,4.0,10.0,61,0.00,,,0.00,Weather View 32 v70,2013-02-04 07:45:00,
2013-02-04 02:50:00,27.3,15.7,30.00,West,264,2.0,10.0,61,0.00,,,0.00,Weather View 32 v70,2013-02-04 07:50:00,
2013-02-04 02:55:00,27.2,15.6,30.00,WSW,239,2.0,10.0,61,0.00,,,0.00,Weather View 32 v70,2013-02-04 07:55:00,
2013-02-04 03:01:00,27.1,15.6,29.99,WSW,239,1.0,10.0,61,0.00,,,0.00,Weather View 32 v70,2013-02-04 08:01:00,
2013-02-04 03:10:00,26.7,15.6,29.99,WNW,284,0.0,5.0,63,0.00,,,0.00,Weather View 32 v70,2013-02-04 08:10:00,
2013-02-04 03:15:00,26.6,15.6,29.99,West,273,4.0,5.0,63,0.00,,,0.00,Weather View 32 v70,2013-02-04 08:15:00,
2013-02-04 03:25:00,26.3,15.8,29.99,WSW,255,0.0,5.0,64,0.00,,,0.00,Weather View 32 v70,2013-02-04 08:25:00,
2013-02-04 03:30:00,26.1,15.5,29.99,WSW,255,0.0,5.0,64,0.00,,,0.00,Weather View 32 v70,2013-02-04 08:30:00,
2013-02-04 03:35:00,26.0,15.5,29.99,WSW,255,0.0,5.0,64,0.00,,,0.00,Weather View 32 v70,2013-02-04 08:35:00,
2013-02-04 03:40:00,26.0,15.3,30.00,WSW,253,3.0,6.0,63,0.00,,,0.00,Weather View 32 v70,2013-02-04 08:40:00,
2013-02-04 03:50:00,26.1,15.2,30.00,WSW,257,2.0,6.0,63,0.00,,,0.00,Weather View 32 v70,2013-02-04 08:50:00,
2013-02-04 03:55:00,26.1,15.1,29.99,WSW,248,3.0,6.0,63,0.00,,,0.00,Weather View 32 v70,2013-02-04 08:55:00,
2013-02-04 04:00:00,26.2,15.1,29.99,SW,226,4.0,6.0,63,0.00,,,0.00,Weather View 32 v70,2013-02-04 09:00:00,
2013-02-04 04:10:00,26.1,15.0,29.99,WSW,255,5.0,6.0,62,0.00,,,0.00,Weather View 32 v70,2013-02-04 09:10:00,
2013-02-04 04:15:00,26.0,14.7,29.98,WSW,246,3.0,7.0,62,0.00,,,0.00,Weather View 32 v70,2013-02-04 09:15:00,
2013-02-04 04:20:00,25.9,14.6,29.98,WSW,239,5.0,10.0,62,0.00,,,0.00,Weather View 32 v70,2013-02-04 09:20:00,
2013-02-04 04:30:00,26.3,14.7,29.98,West,267,8.0,11.0,61,0.00,,,0.00,Weather View 32 v70,2013-02-04 09:30:00,
2013-02-04 04:35:00,26.3,14.6,29.98,SW,236,4.0,11.0,61,0.00,,,0.00,Weather View 32 v70,2013-02-04 09:35:00,
2013-02-04 04:40:00,26.1,14.3,29.98,SW,236,7.0,11.0,61,0.00,,,0.00,Weather View 32 v70,2013-02-04 09:40:00,
2013-02-04 04:50:00,26.3,14.4,29.99,SW,228,5.0,12.0,60,0.00,,,0.00,Weather View 32 v70,2013-02-04 09:50:00,
2013-02-04 04:55:00,26.3,14.4,29.99,West,266,5.0,12.0,60,0.00,,,0.00,Weather View 32 v70,2013-02-04 09:55:00,
2013-02-04 05:00:00,26.2,14.4,29.99,WNW,302,5.0,12.0,60,0.00,,,0.00,Weather View 32 v70,2013-02-04 10:00:00,
2013-02-04 05:05:00,26.2,14.4,29.99,SW,219,4.0,12.0,61,0.00,,,0.00,Weather View 32 v70,2013-02-04 10:05:00,
2013-02-04 05:10:00,26.3,14.6,30.00,SSW,211,4.0,12.0,61,0.00,,,0.00,Weather View 32 v70,2013-02-04 10:10:00,
2013-02-04 05:20:00,26.3,14.4,30.00,West,276,3.0,12.0,60,0.00,,,0.00,Weather View 32 v70,2013-02-04 10:20:00,
2013-02-04 05:25:00,26.4,14.4,30.00,WNW,297,1.0,12.0,60,0.00,,,0.00,Weather View 32 v70,2013-02-04 10:25:00,
2013-02-04 05:30:00,26.4,14.5,30.01,SW,225,2.0,12.0,60,0.00,,,0.00,Weather View 32 v70,2013-02-04 10:30:00,
2013-02-04 05:35:00,26.4,14.4,30.01,SW,225,0.0,12.0,60,0.00,,,0.00,Weather View 32 v70,2013-02-04 10:35:00,
2013-02-04 05:40:00,26.2,14.9,30.01,SE,125,2.0,12.0,62,0.00,,,0.00,Weather View 32 v70,2013-02-04 10:40:00,
2013-02-04 05:50:00,25.5,15.1,30.01,SE,142,1.0,9.0,64,0.00,,,0.00,Weather View 32 v70,2013-02-04 10:50:00,
2013-02-04 06:00:00,24.7,14.9,30.01,East,100,3.0,9.0,66,0.00,,,0.00,Weather View 32 v70,2013-02-04 11:00:00,
2013-02-04 06:05:00,24.4,14.4,30.02,ENE,68,0.0,9.0,65,0.00,,,0.00,Weather View 32 v70,2013-02-04 11:05:00,
2013-02-04 06:10:00,24.6,14.9,30.02,ENE,68,0.0,9.0,66,0.00,,,0.00,Weather View 32 v70,2013-02-04 11:10:00,
2013-02-04 06:15:00,24.7,14.9,30.02,ENE,68,0.0,9.0,66,0.00,,,0.00,Weather View 32 v70,2013-02-04 11:15:00,
2013-02-04 06:20:00,24.8,14.9,30.02,ENE,68,0.0,7.0,66,0.00,,,0.00,Weather View 32 v70,2013-02-04 11:20:00,
2013-02-04 06:25:00,24.8,15.0,30.02,SE,124,3.0,7.0,66,0.00,,,0.00,Weather View 32 v70,2013-02-04 11:25:00,
2013-02-04 06:30:00,24.6,14.9,30.03,ESE,115,0.0,7.0,66,0.00,,,0.00,Weather View 32 v70,2013-02-04 11:30:00,
2013-02-04 06:35:00,24.3,15.1,30.03,SSE,152,3.0,7.0,67,0.00,,,0.00,Weather View 32 v70,2013-02-04 11:35:00,
2013-02-04 06:40:00,24.0,15.1,30.03,SW,221,1.0,7.0,68,0.00,,,0.00,Weather View 32 v70,2013-02-04 11:40:00,
2013-02-04 06:45:00,23.9,15.0,30.04,South,177,2.0,7.0,69,0.00,,,0.00,Weather View 32 v70,2013-02-04 11:45:00,
2013-02-04 06:55:00,23.9,15.0,30.04,SW,235,3.0,7.0,68,0.00,,,0.00,Weather View 32 v70,2013-02-04 11:55:00,
2013-02-04 07:00:00,23.7,14.8,30.04,SSE,150,3.0,7.0,68,0.00,,,0.00,Weather View 32 v70,2013-02-04 12:00:00,
2013-02-04 07:10:00,23.4,15.3,30.04,South,170,4.0,5.0,71,0.00,,,0.00,Weather View 32 v70,2013-02-04 12:10:00,
2013-02-04 07:15:00,23.3,15.5,30.04,SE,128,0.0,5.0,72,0.00,,,0.00,Weather View 32 v70,2013-02-04 12:15:00,
2013-02-04 07:20:00,22.7,15.3,30.05,SSW,207,4.0,7.0,73,0.00,,,0.00,Weather View 32 v70,2013-02-04 12:20:00,
2013-02-04 07:25:00,22.5,15.4,30.05,SW,217,5.0,7.0,74,0.00,,,0.00,Weather View 32 v70,2013-02-04 12:25:00,
2013-02-04 07:35:00,22.2,15.3,30.05,SW,217,3.0,7.0,74,0.00,,,0.00,Weather View 32 v70,2013-02-04 12:35:00,
2013-02-04 07:40:00,22.2,15.5,30.05,SSW,195,1.0,7.0,75,0.00,,,0.00,Weather View 32 v70,2013-02-04 12:40:00,
2013-02-04 07:50:00,22.5,15.7,30.05,South,176,3.0,7.0,75,0.00,,,0.00,Weather View 32 v70,2013-02-04 12:50:00,
2013-02-04 07:55:00,22.9,16.0,30.05,SSE,149,0.0,7.0,74,0.00,,,0.00,Weather View 32 v70,2013-02-04 12:55:00,
2013-02-04 08:04:00,23.0,16.1,30.05,SSE,149,0.0,7.0,75,0.00,,,0.00,Weather View 32 v70,2013-02-04 13:04:00,
2013-02-04 08:10:00,23.1,16.4,30.06,SSE,155,0.0,7.0,75,0.00,,,0.00,Weather View 32 v70,2013-02-04 13:10:00,
2013-02-04 08:15:00,23.1,16.4,30.06,SE,143,0.0,7.0,75,0.00,,,0.00,Weather View 32 v70,2013-02-04 13:15:00,
2013-02-04 08:25:00,23.2,16.9,30.06,SE,143,0.0,7.0,77,0.00,,,0.00,Weather View 32 v70,2013-02-04 13:25:00,
2013-02-04 08:30:00,23.3,17.2,30.06,SE,143,0.0,7.0,77,0.00,,,0.00,Weather View 32 v70,2013-02-04 13:30:00,
2013-02-04 08:35:00,23.5,17.5,30.07,SSW,198,4.0,7.0,78,0.00,,,0.00,Weather View 32 v70,2013-02-04 13:35:00,
2013-02-04 08:40:00,23.9,17.8,30.07,South,180,4.0,7.0,77,0.00,,,0.00,Weather View 32 v70,2013-02-04 13:40:00,
2013-02-04 08:50:00,24.5,18.6,30.08,South,191,3.0,7.0,78,0.00,,,0.00,Weather View 32 v70,2013-02-04 13:50:00,
2013-02-04 08:55:00,25.0,19.0,30.08,South,173,3.0,7.0,78,0.00,,,0.00,Weather View 32 v70,2013-02-04 13:55:00,
2013-02-04 09:00:00,25.4,19.4,30.08,SE,128,2.0,7.0,78,0.00,,,0.00,Weather View 32 v70,2013-02-04 14:00:00,
2013-02-04 09:05:00,25.6,19.4,30.07,SE,138,2.0,7.0,77,0.00,,,0.00,Weather View 32 v70,2013-02-04 14:05:00,
2013-02-04 09:15:00,26.2,19.1,30.08,South,176,4.0,7.0,74,0.00,,,0.00,Weather View 32 v70,2013-02-04 14:15:00,
2013-02-04 09:20:00,26.5,19.1,30.08,ESE,104,1.0,7.0,73,0.00,,,0.00,Weather View 32 v70,2013-02-04 14:20:00,
2013-02-04 09:30:00,27.3,19.5,30.07,East,100,3.0,7.0,72,0.00,,,0.00,Weather View 32 v70,2013-02-04 14:30:00,
2013-02-04 09:35:00,27.7,19.7,30.07,ENE,73,0.0,7.0,71,0.00,,,0.00,Weather View 32 v70,2013-02-04 14:35:00,
2013-02-04 09:40:00,28.1,19.7,30.07,SW,218,8.0,9.0,70,0.00,,,0.00,Weather View 32 v70,2013-02-04 14:40:00,
2013-02-04 09:50:00,29.2,19.5,30.06,SE,131,2.0,10.0,67,0.00,,,0.00,Weather View 32 v70,2013-02-04 14:50:00,
2013-02-04 09:55:00,29.9,19.7,30.06,SSE,162,7.0,10.0,65,0.00,,,0.00,Weather View 32 v70,2013-02-04 14:55:00,
2013-02-04 10:00:00,30.4,18.7,30.06,SW,221,5.0,11.0,62,0.00,,,0.00,Weather View 32 v70,2013-02-04 15:00:00,
2013-02-04 10:05:00,30.8,17.9,30.06,SSW,193,10.0,15.0,58,0.00,,,0.00,Weather View 32 v70,2013-02-04 15:05:00,
2013-02-04 10:15:00,31.2,18.1,30.06,SSW,193,8.0,15.0,58,0.00,,,0.00,Weather View 32 v70,2013-02-04 15:15:00,
2013-02-04 10:20:00,31.3,18.1,30.06,SSW,208,11.0,15.0,58,0.00,,,0.00,Weather View 32 v70,2013-02-04 15:20:00,
2013-02-04 10:30:00,31.6,18.4,30.06,SSW,194,5.0,15.0,58,0.00,,,0.00,Weather View 32 v70,2013-02-04 15:30:00,
2013-02-04 10:35:00,31.8,18.3,30.06,South,173,10.0,15.0,57,0.00,,,0.00,Weather View 32 v70,2013-02-04 15:35:00,
2013-02-04 10:40:00,31.9,18.4,30.06,South,169,10.0,15.0,57,0.00,,,0.00,Weather View 32 v70,2013-02-04 15:40:00,
2013-02-04 10:50:00,32.2,18.8,30.06,South,176,8.0,17.0,57,0.00,,,0.00,Weather View 32 v70,2013-02-04 15:50:00,
2013-02-04 10:59:00,32.4,18.1,30.06,SSW,203,14.0,18.0,55,0.00,,,0.00,Weather View 32 v70,2013-02-04 15:59:00,
2013-02-04 11:05:00,32.7,18.3,30.06,South,172,15.0,18.0,55,0.00,,,0.00,Weather View 32 v70,2013-02-04 16:05:00,
2013-02-04 11:14:00,33.0,18.3,30.05,SSW,198,8.0,19.0,54,0.00,,,0.00,Weather View 32 v70,2013-02-04 16:14:00,
2013-02-04 11:19:00,32.9,18.0,30.05,SSW,208,10.0,19.0,54,0.00,,,0.00,Weather View 32 v70,2013-02-04 16:19:00,
2013-02-04 11:29:00,33.3,19.0,30.04,SSE,155,11.0,19.0,55,0.00,,,0.00,Weather View 32 v70,2013-02-04 16:29:00,
2013-02-04 11:34:00,33.4,18.7,30.04,SE,132,10.0,19.0,54,0.00,,,0.00,Weather View 32 v70,2013-02-04 16:34:00,
2013-02-04 11:39:00,33.4,18.7,30.04,South,169,7.0,19.0,54,0.00,,,0.00,Weather View 32 v70,2013-02-04 16:39:00,
2013-02-04 11:44:00,33.5,19.2,30.04,ESE,113,8.0,19.0,55,0.00,,,0.00,Weather View 32 v70,2013-02-04 16:44:00,
2013-02-04 11:49:00,33.6,19.0,30.03,SSE,160,7.0,19.0,55,0.00,,,0.00,Weather View 32 v70,2013-02-04 16:49:00,
2013-02-04 11:54:00,33.5,18.9,30.03,SSE,160,11.0,19.0,55,0.00,,,0.00,Weather View 32 v70,2013-02-04 16:54:00,
2013-02-04 11:59:00,33.5,19.3,30.03,SSW,197,11.0,19.0,56,0.00,,,0.00,Weather View 32 v70,2013-02-04 16:59:00,
2013-02-04 12:04:00,33.5,19.0,30.03,East,86,9.0,20.0,55,0.00,,,0.00,Weather View 32 v70,2013-02-04 17:04:00,
2013-02-04 12:09:00,33.7,19.7,30.02,SE,142,11.0,20.0,56,0.00,,,0.00,Weather View 32 v70,2013-02-04 17:09:00,
2013-02-04 12:15:00,33.8,18.8,30.02,SSE,166,9.0,20.0,54,0.00,,,0.00,Weather View 32 v70,2013-02-04 17:15:00,
2013-02-04 12:20:00,34.0,19.8,30.02,SSE,158,11.0,20.0,56,0.00,,,0.00,Weather View 32 v70,2013-02-04 17:20:00,
2013-02-04 12:24:00,34.3,19.8,30.01,SSE,163,7.0,20.0,55,0.00,,,0.00,Weather View 32 v70,2013-02-04 17:24:00,
2013-02-04 12:29:00,34.6,19.7,30.01,South,172,7.0,20.0,54,0.00,,,0.00,Weather View 32 v70,2013-02-04 17:29:00,
2013-02-04 12:35:00,34.7,20.1,30.01,ESE,122,8.0,20.0,55,0.00,,,0.00,Weather View 32 v70,2013-02-04 17:35:00,
2013-02-04 12:40:00,34.8,19.8,30.00,SE,138,9.0,20.0,54,0.00,,,0.00,Weather View 32 v70,2013-02-04 17:40:00,
2013-02-04 13:54:00,36.2,21.6,29.96,SSE,153,9.0,18.0,55,0.00,,,0.00,Weather View 32 v70,2013-02-04 18:54:00,
2013-02-04 13:59:00,36.1,21.9,29.96,SE,138,7.0,18.0,56,0.00,,,0.00,Weather View 32 v70,2013-02-04 18:59:00,
2013-02-04 14:04:00,36.2,22.4,29.96,South,169,9.0,18.0,57,0.00,,,0.00,Weather View 32 v70,2013-02-04 19:04:00,
2013-02-04 14:14:00,36.8,22.6,29.96,SSE,167,11.0,18.0,56,0.00,,,0.00,Weather View 32 v70,2013-02-04 19:14:00,
2013-02-04 14:20:00,37.0,22.5,29.96,South,172,11.0,18.0,56,0.00,,,0.00,Weather View 32 v70,2013-02-04 19:20:00,
2013-02-04 14:30:00,37.1,22.8,29.95,South,191,12.0,20.0,56,0.00,,,0.00,Weather View 32 v70,2013-02-04 19:30:00,
2013-02-04 14:39:00,37.9,23.9,29.95,SSE,166,8.0,20.0,57,0.00,,,0.00,Weather View 32 v70,2013-02-04 19:39:00,
2013-02-04 14:44:00,38.0,23.2,29.95,South,184,10.0,20.0,55,0.00,,,0.00,Weather View 32 v70,2013-02-04 19:44:00,
2013-02-04 14:50:00,37.8,23.0,29.94,SSE,149,11.0,20.0,55,0.00,,,0.00,Weather View 32 v70,2013-02-04 19:50:00,
2013-02-04 14:59:00,37.5,23.4,29.94,South,187,10.0,20.0,57,0.00,,,0.00,Weather View 32 v70,2013-02-04 19:59:00,
2013-02-04 15:09:00,37.4,23.1,29.94,SSE,159,13.0,20.0,56,0.00,,,0.00,Weather View 32 v70,2013-02-04 20:09:00,
2013-02-04 15:14:00,37.6,23.4,29.94,South,169,12.0,20.0,56,0.00,,,0.00,Weather View 32 v70,2013-02-04 20:14:00,
2013-02-04 15:19:00,37.9,23.5,29.94,SSE,158,14.0,20.0,56,0.00,,,0.00,Weather View 32 v70,2013-02-04 20:19:00,
2013-02-04 15:29:00,38.5,23.7,29.94,South,170,13.0,20.0,55,0.00,,,0.00,Weather View 32 v70,2013-02-04 20:29:00,
2013-02-04 15:34:00,38.6,23.9,29.93,SE,145,12.0,20.0,55,0.00,,,0.00,Weather View 32 v70,2013-02-04 20:34:00,
2013-02-04 15:39:00,38.7,23.7,29.93,South,179,6.0,20.0,55,0.00,,,0.00,Weather View 32 v70,2013-02-04 20:39:00,
2013-02-04 15:49:00,38.6,23.7,29.93,South,183,12.0,20.0,55,0.00,,,0.00,Weather View 32 v70,2013-02-04 20:49:00,
2013-02-04 15:54:00,38.6,24.1,29.93,SSW,200,8.0,20.0,56,0.00,,,0.00,Weather View 32 v70,2013-02-04 20:54:00,
2013-02-04 16:04:00,38.5,24.2,29.93,SSW,201,11.0,20.0,56,0.00,,,0.00,Weather View 32 v70,2013-02-04 21:04:00,
2013-02-04 16:09:00,38.5,24.3,29.93,SSW,205,10.0,20.0,56,0.00,,,0.00,Weather View 32 v70,2013-02-04 21:09:00,
2013-02-04 16:19:00,38.4,24.3,29.93,SSW,205,8.0,19.0,57,0.00,,,0.00,Weather View 32 v70,2013-02-04 21:19:00,
2013-02-04 16:24:00,38.5,24.5,29.92,SSW,210,5.0,19.0,57,0.00,,,0.00,Weather View 32 v70,2013-02-04 21:24:00,
2013-02-04 16:29:00,38.5,24.4,29.92,South,176,11.0,19.0,57,0.00,,,0.00,Weather View 32 v70,2013-02-04 21:29:00,
2013-02-04 16:39:00,38.4,24.4,29.92,SSW,211,7.0,17.0,57,0.00,,,0.00,Weather View 32 v70,2013-02-04 21:39:00,
2013-02-04 16:44:00,38.4,24.5,29.92,SW,218,7.0,17.0,57,0.00,,,0.00,Weather View 32 v70,2013-02-04 21:44:00,
2013-02-04 16:55:00,38.2,24.5,29.92,SSW,201,8.0,15.0,58,0.00,,,0.00,Weather View 32 v70,2013-02-04 21:55:00,
2013-02-04 17:04:00,38.1,25.0,29.92,SSW,205,7.0,15.0,59,0.00,,,0.00,Weather View 32 v70,2013-02-04 22:04:00,
2013-02-04 17:14:00,38.0,25.3,29.92,SW,232,6.0,15.0,60,0.00,,,0.00,Weather View 32 v70,2013-02-04 22:14:00,
2013-02-04 17:19:00,37.9,25.1,29.92,SW,214,7.0,15.0,60,0.00,,,0.00,Weather View 32 v70,2013-02-04 22:19:00,
2013-02-04 17:29:00,37.8,24.9,29.92,SSW,210,7.0,15.0,59,0.00,,,0.00,Weather View 32 v70,2013-02-04 22:29:00,
2013-02-04 17:34:00,37.9,25.0,29.92,SSW,203,7.0,14.0,59,0.00,,,0.00,Weather View 32 v70,2013-02-04 22:34:00,
2013-02-04 17:39:00,37.9,25.0,29.91,SW,217,6.0,14.0,60,0.00,,,0.00,Weather View 32 v70,2013-02-04 22:39:00,
2013-02-04 17:49:00,37.9,25.2,29.91,SSW,200,5.0,14.0,60,0.00,,,0.00,Weather View 32 v70,2013-02-04 22:49:00,
2013-02-04 17:54:00,37.8,25.2,29.91,SW,218,5.0,14.0,60,0.00,,,0.00,Weather View 32 v70,2013-02-04 22:54:00,
2013-02-04 17:59:00,37.6,25.0,29.91,SSW,210,4.0,12.0,60,0.00,,,0.00,Weather View 32 v70,2013-02-04 22:59:00,
2013-02-04 18:04:00,37.4,25.0,29.91,SW,222,3.0,12.0,61,0.00,,,0.00,Weather View 32 v70,2013-02-04 23:04:00,
2013-02-04 18:14:00,37.0,25.1,29.91,SW,215,4.0,12.0,62,0.00,,,0.00,Weather View 32 v70,2013-02-04 23:14:00,
2013-02-04 18:19:00,36.8,25.1,29.92,SW,217,7.0,12.0,62,0.00,,,0.00,Weather View 32 v70,2013-02-04 23:19:00,
2013-02-04 18:29:00,36.5,25.1,29.92,SSW,208,5.0,12.0,63,0.00,,,0.00,Weather View 32 v70,2013-02-04 23:29:00,
2013-02-04 18:34:00,36.6,25.5,29.92,SSW,212,6.0,10.0,64,0.00,,,0.00,Weather View 32 v70,2013-02-04 23:34:00,
2013-02-04 18:39:00,36.6,25.4,29.93,SW,224,7.0,12.0,64,0.00,,,0.00,Weather View 32 v70,2013-02-04 23:39:00,
2013-02-04 18:49:00,36.8,25.3,29.93,South,190,10.0,15.0,63,0.00,,,0.00,Weather View 32 v70,2013-02-04 23:49:00,
2013-02-04 18:54:00,36.7,25.2,29.92,South,179,9.0,15.0,63,0.00,,,0.00,Weather View 32 v70,2013-02-04 23:54:00,
2013-02-04 19:04:00,36.7,25.2,29.92,SSE,165,5.0,15.0,63,0.00,,,0.00,Weather View 32 v70,2013-02-05 00:04:00,
2013-02-04 19:09:00,36.8,25.2,29.91,SW,214,6.0,15.0,63,0.00,,,0.00,Weather View 32 v70,2013-02-05 00:09:00,
2013-02-04 19:19:00,36.6,25.1,29.91,SSW,200,7.0,15.0,63,0.00,,,0.00,Weather View 32 v70,2013-02-05 00:19:00,
2013-02-04 19:24:00,36.7,25.2,29.91,SSW,208,11.0,15.0,63,0.00,,,0.00,Weather View 32 v70,2013-02-05 00:24:00,
2013-02-04 19:34:00,36.8,25.2,29.91,SE,127,7.0,15.0,63,0.00,,,0.00,Weather View 32 v70,2013-02-05 00:34:00,
2013-02-04 19:39:00,36.8,25.1,29.91,SW,215,7.0,15.0,62,0.00,,,0.00,Weather View 32 v70,2013-02-05 00:39:00,
2013-02-04 19:44:00,36.4,25.1,29.91,SW,221,8.0,15.0,63,0.00,,,0.00,Weather View 32 v70,2013-02-05 00:44:00,
2013-02-04 19:54:00,35.8,25.0,29.90,SSE,160,6.0,14.0,64,0.00,,,0.00,Weather View 32 v70,2013-02-05 00:54:00,
2013-02-04 19:59:00,35.7,25.1,29.90,SSW,208,9.0,14.0,65,0.00,,,0.00,Weather View 32 v70,2013-02-05 00:59:00,
2013-02-04 20:09:00,35.3,25.2,29.90,SSW,205,10.0,14.0,66,0.00,,,0.00,Weather View 32 v70,2013-02-05 01:09:00,
2013-02-04 20:14:00,35.4,25.4,29.90,SW,224,7.0,14.0,67,0.00,,,0.00,Weather View 32 v70,2013-02-05 01:14:00,
2013-02-04 20:19:00,35.5,25.7,29.90,SSW,208,8.0,14.0,67,0.00,,,0.00,Weather View 32 v70,2013-02-05 01:19:00,
2013-02-04 20:29:00,35.8,25.7,29.90,SSW,205,6.0,14.0,66,0.00,,,0.00,Weather View 32 v70,2013-02-05 01:29:00,
2013-02-04 20:34:00,35.8,25.7,29.90,WSW,238,7.0,14.0,66,0.00,,,0.00,Weather View 32 v70,2013-02-05 01:34:00,
2013-02-04 20:39:00,36.0,25.8,29.91,WSW,243,7.0,14.0,66,0.00,,,0.00,Weather View 32 v70,2013-02-05 01:39:00,
2013-02-04 20:49:00,36.1,25.7,29.91,SW,233,8.0,13.0,66,0.00,,,0.00,Weather View 32 v70,2013-02-05 01:49:00,
2013-02-04 20:54:00,36.2,25.9,29.91,SW,219,7.0,13.0,66,0.00,,,0.00,Weather View 32 v70,2013-02-05 01:54:00,
2013-02-04 20:59:00,36.2,25.8,29.91,SW,214,6.0,13.0,66,0.00,,,0.00,Weather View 32 v70,2013-02-05 01:59:00,
2013-02-04 21:09:00,36.3,25.7,29.91,SSE,148,5.0,13.0,65,0.00,,,0.00,Weather View 32 v70,2013-02-05 02:09:00,
2013-02-04 21:14:00,36.3,25.7,29.91,SSW,203,8.0,13.0,65,0.00,,,0.00,Weather View 32 v70,2013-02-05 02:14:00,
2013-02-04 21:24:00,36.1,25.6,29.91,SW,226,9.0,14.0,66,0.00,,,0.00,Weather View 32 v70,2013-02-05 02:24:00,
2013-02-04 21:29:00,36.0,25.7,29.91,SSW,198,9.0,14.0,66,0.00,,,0.00,Weather View 32 v70,2013-02-05 02:29:00,
2013-02-04 21:34:00,35.8,25.7,29.91,SSW,204,10.0,14.0,67,0.00,,,0.00,Weather View 32 v70,2013-02-05 02:34:00,
2013-02-04 21:44:00,35.4,25.6,29.90,SSW,204,8.0,14.0,67,0.00,,,0.00,Weather View 32 v70,2013-02-05 02:44:00,
2013-02-04 21:49:00,35.1,25.5,29.90,SW,218,5.0,14.0,68,0.00,,,0.00,Weather View 32 v70,2013-02-05 02:49:00,
2013-02-04 21:54:00,34.8,25.4,29.90,SSW,204,7.0,14.0,68,0.00,,,0.00,Weather View 32 v70,2013-02-05 02:54:00,
2013-02-04 22:04:00,34.4,25.3,29.90,SW,222,7.0,14.0,69,0.00,,,0.00,Weather View 32 v70,2013-02-05 03:04:00,
2013-02-04 22:09:00,34.2,25.2,29.90,SSW,208,7.0,14.0,69,0.00,,,0.00,Weather View 32 v70,2013-02-05 03:09:00,
2013-02-04 22:14:00,34.2,25.3,29.90,SW,225,5.0,14.0,70,0.00,,,0.00,Weather View 32 v70,2013-02-05 03:14:00,
2013-02-04 22:24:00,33.8,25.1,29.90,SE,127,1.0,12.0,70,0.00,,,0.00,Weather View 32 v70,2013-02-05 03:24:00,
2013-02-04 22:29:00,33.6,25.0,29.89,SSW,198,3.0,12.0,70,0.00,,,0.00,Weather View 32 v70,2013-02-05 03:29:00,
2013-02-04 22:39:00,33.3,24.9,29.89,SSW,201,0.0,11.0,71,0.00,,,0.00,Weather View 32 v70,2013-02-05 03:39:00,
2013-02-04 22:44:00,33.2,24.8,29.89,SSW,201,0.0,10.0,71,0.00,,,0.00,Weather View 32 v70,2013-02-05 03:44:00,
2013-02-04 22:49:00,33.2,24.8,29.89,SSW,201,0.0,10.0,71,0.00,,,0.00,Weather View 32 v70,2013-02-05 03:49:00,
2013-02-04 22:54:00,33.1,24.9,29.89,SSW,201,0.0,10.0,71,0.00,,,0.00,Weather View 32 v70,2013-02-05 03:54:00,
2013-02-04 23:05:00,33.0,24.9,29.89,SSW,207,1.0,9.0,72,0.00,,,0.00,Weather View 32 v70,2013-02-05 04:05:00,
2013-02-04 23:14:00,32.8,24.9,29.88,SSE,155,0.0,8.0,73,0.00,,,0.00,Weather View 32 v70,2013-02-05 04:14:00,
2013-02-04 23:19:00,32.7,24.9,29.89,SSE,155,0.0,7.0,73,0.00,,,0.00,Weather View 32 v70,2013-02-05 04:19:00,
2013-02-04 23:29:00,32.2,24.9,29.89,SSE,155,0.0,5.0,74,0.00,,,0.00,Weather View 32 v70,2013-02-05 04:29:00,
2013-02-04 23:34:00,31.9,24.9,29.89,SSE,155,0.0,5.0,75,0.00,,,0.00,Weather View 32 v70,2013-02-05 04:34:00,
2013-02-04 23:39:00,31.6,24.8,29.89,NNE,23,3.0,5.0,76,0.00,,,0.00,Weather View 32 v70,2013-02-05 04:39:00,
2013-02-04 23:49:00,31.2,24.8,29.88,NE,48,1.0,5.0,77,0.00,,,0.00,Weather View 32 v70,2013-02-05 04:49:00,
2013-02-04 23:54:00,31.2,24.9,29.88,NE,49,0.0,5.0,77,0.00,,,0.00,Weather View 32 v70,2013-02-05 04:54:00,
2013-02-04 23:59:00,31.1,24.8,29.88,NE,49,0.0,5.0,77,0.00,,,0.00,Weather View 32 v70,2013-02-05 04:59:00,